Time;durP1;ratioP1;P1;durP2;ratioP2;P2;SDS_P1;SDS_P2;PMS_P1;PMS_P2;Temp;Humidity;BMP_temperature;BMP_pressure;BME280_temperature;BME280_humidity;BME280_pressure;Samples;Min_cycle;Max_cycle;Signal;HPM_P1;HPM_P2
2022/09/03 00:02:03;;;;;;;4.88;3.47;;;22.60;53.40;;;;;;5018099;28;20215;-72
2022/09/03 00:04:33;;;;;;;6.25;3.60;;;22.50;53.40;;;;;;5017773;28;20214;-72
2022/09/03 00:07:02;;;;;;;5.95;3.70;;;22.50;53.40;;;;;;5017390;28;20216;-73
2022/09/03 00:09:31;;;;;;;5.72;3.45;;;22.50;53.40;;;;;;5001223;28;20204;-72
2022/09/03 00:12:03;;;;;;;3.35;3.03;;;22.50;53.50;;;;;;5017563;28;20220;-73
2022/09/03 00:14:36;;;;;;;6.85;3.60;;;22.50;53.40;;;;;;5018238;28;20242;-73
2022/09/03 00:17:05;;;;;;;3.75;3.00;;;22.50;53.50;;;;;;5017320;28;20200;-73
2022/09/03 00:19:33;;;;;;;4.40;3.33;;;22.50;53.40;;;;;;5017573;28;20635;-74
2022/09/03 00:22:02;;;;;;;4.07;3.15;;;22.50;53.40;;;;;;5017123;28;20714;-72
2022/09/03 00:24:30;;;;;;;3.72;2.83;;;22.50;53.40;;;;;;5017108;28;20551;-72
2022/09/03 00:27:00;;;;;;;4.63;2.92;;;22.50;53.40;;;;;;5017561;28;20216;-73
2022/09/03 00:29:28;;;;;;;3.63;2.70;;;22.50;53.40;;;;;;5017132;28;20220;-73
2022/09/03 00:31:58;;;;;;;3.08;2.65;;;22.50;53.40;;;;;;5017111;28;20219;-72
2022/09/03 00:34:27;;;;;;;3.30;2.65;;;22.50;53.30;;;;;;5017757;28;20199;-73
2022/09/03 00:36:54;;;;;;;3.20;2.90;;;22.50;53.40;;;;;;5016970;28;20536;-72
2022/09/03 00:39:22;;;;;;;2.70;2.50;;;22.50;53.40;;;;;;5016943;28;20211;-73
2022/09/03 00:41:58;;;;;;;3.95;2.60;;;22.50;53.40;;;;;;5016875;28;20231;-73
2022/09/03 00:44:47;;;;;;;4.20;2.67;;;22.50;53.40;;;;;;5017179;28;20176;-72
2022/09/03 00:47:18;;;;;;;3.45;2.78;;;22.50;53.40;;;;;;5016930;28;20212;-72
2022/09/03 00:49:51;;;;;;;3.33;2.50;;;22.50;53.30;;;;;;5017080;28;20188;-72
2022/09/03 00:52:22;;;;;;;2.85;2.42;;;22.50;53.40;;;;;;5000410;28;20315;-72
2022/09/03 00:54:52;;;;;;;2.53;2.33;;;22.50;53.30;;;;;;5016573;28;20551;-72
2022/09/03 00:57:25;;;;;;;3.03;2.45;;;22.50;53.40;;;;;;5017044;28;20323;-72
2022/09/03 00:59:57;;;;;;;3.00;2.40;;;22.50;53.40;;;;;;5016670;28;20207;-72
2022/09/03 01:02:29;;;;;;;2.65;2.40;;;22.50;53.40;;;;;;5016864;28;20624;-72
2022/09/03 01:04:59;;;;;;;3.13;2.30;;;22.50;53.40;;;;;;5016612;28;20637;-72
2022/09/03 01:07:31;;;;;;;3.03;2.53;;;22.50;53.40;;;;;;5034129;28;20196;-72
2022/09/03 01:10:01;;;;;;;3.10;2.30;;;22.50;53.40;;;;;;5034872;28;20221;-72
2022/09/03 01:12:33;;;;;;;3.17;2.35;;;22.50;53.40;;;;;;5017175;28;20216;-72
2022/09/03 01:15:06;;;;;;;2.67;2.20;;;22.50;53.40;;;;;;5016941;28;20187;-72
2022/09/03 01:17:40;;;;;;;2.42;2.03;;;22.50;53.30;;;;;;5016590;28;20283;-72
2022/09/03 01:20:14;;;;;;;2.20;1.98;;;22.50;53.40;;;;;;5016660;28;20195;-73
2022/09/03 01:23:13;;;;;;;2.22;2.00;;;22.50;53.30;;;;;;5034364;28;20176;-72
2022/09/03 01:25:50;;;;;;;2.90;2.05;;;22.50;53.30;;;;;;5016522;28;20246;-72
2022/09/03 01:28:35;;;;;;;2.30;1.90;;;22.40;53.30;;;;;;5016663;28;20243;-73
2022/09/03 01:31:07;;;;;;;2.40;2.20;;;22.50;53.30;;;;;;5020938;28;20244;-72
2022/09/03 01:33:38;;;;;;;2.45;2.10;;;22.50;53.40;;;;;;5019239;28;20286;-72
2022/09/03 01:36:09;;;;;;;2.70;2.10;;;22.50;53.40;;;;;;5016206;28;20253;-73
2022/09/03 01:38:38;;;;;;;2.78;1.90;;;22.50;53.40;;;;;;5016387;28;20207;-72
2022/09/03 01:43:56;;;;;;;1.83;1.73;;;22.50;53.40;;;;;;5015194;28;20199;-73
2022/09/03 01:46:24;;;;;;;1.90;1.77;;;22.50;53.40;;;;;;5016002;28;20246;-72
2022/09/03 01:48:53;;;;;;;2.85;1.90;;;22.50;53.40;;;;;;5016218;28;20250;-72
2022/09/03 01:51:21;;;;;;;2.35;1.90;;;22.50;53.40;;;;;;5016331;28;20216;-73
2022/09/03 01:54:39;;;;;;;2.40;1.90;;;22.50;53.40;;;;;;5016666;28;20196;-72
2022/09/03 01:57:24;;;;;;;1.92;1.73;;;22.50;53.40;;;;;;4934644;29;20298;-72
2022/09/03 01:59:55;;;;;;;1.80;1.70;;;22.50;53.40;;;;;;5018207;28;20226;-72
2022/09/03 02:02:24;;;;;;;2.28;1.90;;;22.50;53.40;;;;;;5018123;28;20220;-72
2022/09/03 02:05:01;;;;;;;2.13;1.77;;;22.50;53.40;;;;;;5016714;28;20203;-72
2022/09/03 02:07:32;;;;;;;1.90;1.80;;;22.50;53.40;;;;;;5020888;28;20220;-72
2022/09/03 02:09:59;;;;;;;2.38;1.92;;;22.50;53.40;;;;;;5020544;28;20192;-72
2022/09/03 02:12:27;;;;;;;1.60;1.50;;;22.50;53.40;;;;;;5019877;28;20216;-72
2022/09/03 02:14:55;;;;;;;1.65;1.55;;;22.50;53.50;;;;;;5020277;28;20206;-72
2022/09/03 02:17:23;;;;;;;2.08;1.65;;;22.40;53.40;;;;;;5020068;28;20199;-72
2022/09/03 02:19:49;;;;;;;2.00;1.80;;;22.50;53.40;;;;;;5019540;28;20255;-71
2022/09/03 02:22:16;;;;;;;1.50;1.40;;;22.50;53.40;;;;;;5019651;28;20220;-72
2022/09/03 02:24:43;;;;;;;1.67;1.58;;;22.50;53.40;;;;;;5037019;28;20246;-72
2022/09/03 02:27:10;;;;;;;1.70;1.60;;;22.50;53.40;;;;;;5019481;28;20621;-73
2022/09/03 02:29:38;;;;;;;1.60;1.50;;;22.50;53.40;;;;;;5019336;28;20344;-73
2022/09/03 02:32:06;;;;;;;2.13;1.67;;;22.50;53.50;;;;;;5003460;28;20231;-72
2022/09/03 02:34:33;;;;;;;1.48;1.38;;;22.50;53.50;;;;;;5019189;28;20226;-72
2022/09/03 02:37:00;;;;;;;1.95;1.70;;;22.50;53.60;;;;;;5019102;28;20582;-73
2022/09/03 02:39:28;;;;;;;1.70;1.60;;;22.50;53.60;;;;;;5019137;28;20203;-72
2022/09/03 02:41:56;;;;;;;2.30;1.60;;;22.40;53.50;;;;;;5019119;28;20248;-73
2022/09/03 02:44:26;;;;;;;1.85;1.73;;;22.40;53.60;;;;;;5019508;28;20211;-73
2022/09/03 02:46:55;;;;;;;1.60;1.50;;;22.40;53.50;;;;;;5003066;28;20828;-73
2022/09/03 02:49:23;;;;;;;1.95;1.67;;;22.40;53.60;;;;;;5019076;28;20205;-72
2022/09/03 02:51:50;;;;;;;1.52;1.42;;;22.40;53.60;;;;;;5037324;28;20207;-73
2022/09/03 02:54:16;;;;;;;2.03;1.63;;;22.40;53.60;;;;;;5036734;28;20596;-72
2022/09/03 02:56:47;;;;;;;1.73;1.63;;;22.40;53.60;;;;;;5018879;28;20204;-72
2022/09/03 02:59:13;;;;;;;1.95;1.75;;;22.40;53.60;;;;;;5019259;28;20204;-72
2022/09/03 03:01:41;;;;;;;2.22;1.73;;;22.40;53.60;;;;;;5036431;28;20211;-73
2022/09/03 03:04:07;;;;;;;2.08;1.58;;;22.40;53.60;;;;;;5018681;28;20287;-72
2022/09/03 03:06:36;;;;;;;1.73;1.60;;;22.40;53.60;;;;;;5018710;28;20196;-72
2022/09/03 03:09:03;;;;;;;1.92;1.75;;;22.40;53.70;;;;;;5018725;28;20231;-72
2022/09/03 03:11:30;;;;;;;1.73;1.63;;;22.40;53.70;;;;;;5018994;28;20219;-72
2022/09/03 03:13:57;;;;;;;1.60;1.50;;;22.40;53.60;;;;;;5018754;28;20300;-72
2022/09/03 03:16:24;;;;;;;2.13;1.42;;;22.40;53.60;;;;;;5018486;28;20254;-72
2022/09/03 03:18:51;;;;;;;1.60;1.50;;;22.40;53.60;;;;;;5018488;28;20199;-72
2022/09/03 03:21:18;;;;;;;1.60;1.50;;;22.40;53.60;;;;;;5019452;28;20239;-72
2022/09/03 03:23:47;;;;;;;1.60;1.50;;;22.40;53.60;;;;;;5003291;28;20235;-73
2022/09/03 03:26:17;;;;;;;1.67;1.38;;;22.50;53.50;;;;;;5018761;28;20208;-73
2022/09/03 03:28:45;;;;;;;1.40;1.17;;;22.50;53.40;;;;;;5018455;28;20216;-73
2022/09/03 03:31:13;;;;;;;1.63;1.52;;;22.50;53.30;;;;;;5019134;28;20734;-72
2022/09/03 03:33:40;;;;;;;1.48;1.38;;;22.60;53.20;;;;;;5018528;28;20196;-72
2022/09/03 03:36:08;;;;;;;1.50;1.40;;;22.60;53.10;;;;;;5018305;28;20235;-73
2022/09/03 03:38:35;;;;;;;1.60;1.50;;;22.70;53.10;;;;;;5018073;28;20192;-72
2022/09/03 03:41:09;;;;;;;1.52;1.42;;;22.70;53.00;;;;;;5017993;28;20212;-73
2022/09/03 03:43:35;;;;;;;1.50;1.40;;;22.70;52.80;;;;;;5018336;28;20200;-72
2022/09/03 03:46:03;;;;;;;1.98;1.40;;;22.70;52.70;;;;;;5018162;28;20196;-72
2022/09/03 03:48:31;;;;;;;1.50;1.40;;;22.80;52.70;;;;;;5017905;28;20219;-72
2022/09/03 03:51:00;;;;;;;1.75;1.58;;;22.80;52.70;;;;;;5017915;28;20246;-72
2022/09/03 03:53:28;;;;;;;1.40;1.30;;;22.80;52.50;;;;;;5017809;28;20206;-73
2022/09/03 03:55:55;;;;;;;2.28;1.40;;;22.90;52.50;;;;;;5017746;28;20200;-72
2022/09/03 03:58:24;;;;;;;2.00;1.33;;;22.90;52.50;;;;;;5017645;28;20196;-72
2022/09/03 04:00:51;;;;;;;1.38;1.30;;;22.90;52.50;;;;;;5017711;28;20596;-73
2022/09/03 04:03:18;;;;;;;1.88;1.60;;;22.90;52.50;;;;;;5017931;28;20643;-72
2022/09/03 04:05:54;;;;;;;1.40;1.30;;;22.90;52.50;;;;;;5017633;28;20243;-72
2022/09/03 04:08:22;;;;;;;1.33;1.23;;;22.90;52.50;;;;;;5017701;28;20215;-73
2022/09/03 04:10:49;;;;;;;1.60;1.50;;;22.90;52.40;;;;;;5017654;28;20212;-72
2022/09/03 04:13:16;;;;;;;1.65;1.40;;;23.00;52.40;;;;;;5018704;28;20553;-72
2022/09/03 04:15:44;;;;;;;1.60;1.50;;;23.00;52.50;;;;;;5018308;28;20219;-72
2022/09/03 04:18:11;;;;;;;1.30;1.20;;;22.90;52.40;;;;;;5019260;28;20607;-72
2022/09/03 04:20:38;;;;;;;1.45;1.35;;;23.00;52.40;;;;;;5020115;28;20216;-72
2022/09/03 04:23:05;;;;;;;1.58;1.30;;;23.00;52.30;;;;;;5018021;28;20200;-73
2022/09/03 04:25:32;;;;;;;1.25;1.20;;;23.00;52.40;;;;;;5017468;28;20247;-72
2022/09/03 04:28:02;;;;;;;1.60;1.50;;;23.00;52.40;;;;;;5016918;28;20777;-72
2022/09/03 04:30:29;;;;;;;1.50;1.40;;;23.00;52.40;;;;;;5017308;28;20220;-72
2022/09/03 04:32:58;;;;;;;1.42;1.33;;;22.90;52.40;;;;;;5017245;28;20204;-72
2022/09/03 04:35:32;;;;;;;2.55;1.20;;;22.90;52.40;;;;;;5035058;28;20239;-72
2022/09/03 04:37:59;;;;;;;1.40;1.30;;;22.90;52.50;;;;;;5017073;28;20286;-73
2022/09/03 04:40:26;;;;;;;1.08;1.08;;;22.90;52.50;;;;;;5016941;28;20200;-72
2022/09/03 04:42:57;;;;;;;1.27;1.23;;;22.90;52.50;;;;;;5034656;28;20188;-72
2022/09/03 04:45:24;;;;;;;1.70;1.60;;;22.90;52.50;;;;;;5016901;28;20219;-72
2022/09/03 04:48:00;;;;;;;1.30;1.20;;;22.80;53.00;;;;;;5016816;28;20216;-72
2022/09/03 04:50:27;;;;;;;1.45;1.35;;;22.90;52.50;;;;;;5016745;28;20210;-73
2022/09/03 04:53:00;;;;;;;1.70;1.60;;;22.80;52.50;;;;;;5016808;28;20246;-72
2022/09/03 04:55:27;;;;;;;1.52;1.42;;;22.80;52.60;;;;;;5016611;28;20192;-72
2022/09/03 04:57:54;;;;;;;1.50;1.40;;;22.70;52.60;;;;;;5016749;28;20258;-72
2022/09/03 05:00:21;;;;;;;1.50;1.40;;;22.70;52.70;;;;;;5016541;28;20200;-73
2022/09/03 05:02:50;;;;;;;1.50;1.40;;;22.70;52.70;;;;;;5016862;28;20196;-72
2022/09/03 05:05:19;;;;;;;2.22;1.40;;;22.70;52.70;;;;;;4984963;28;20200;-72
2022/09/03 05:07:46;;;;;;;1.60;1.40;;;22.70;52.70;;;;;;5016567;28;20212;-72
2022/09/03 05:10:15;;;;;;;1.50;1.40;;;22.60;52.70;;;;;;5016509;28;20258;-73
2022/09/03 05:12:42;;;;;;;1.65;1.55;;;22.70;52.90;;;;;;5017444;28;20258;-72
2022/09/03 05:15:09;;;;;;;1.50;1.40;;;22.70;52.90;;;;;;5016427;28;20208;-72
2022/09/03 05:17:37;;;;;;;1.63;1.52;;;22.70;53.00;;;;;;5016424;28;20200;-72
2022/09/03 05:20:04;;;;;;;1.75;1.25;;;22.70;52.90;;;;;;5034303;28;20196;-73
2022/09/03 05:22:34;;;;;;;1.50;1.40;;;22.60;52.90;;;;;;5016833;28;20226;-72
2022/09/03 05:25:00;;;;;;;1.10;1.10;;;22.60;52.90;;;;;;5017569;28;20299;-72
2022/09/03 05:27:27;;;;;;;1.60;1.50;;;22.60;52.90;;;;;;5017592;28;20204;-72
2022/09/03 05:29:54;;;;;;;1.48;1.38;;;22.60;52.90;;;;;;5016593;28;20206;-73
2022/09/03 05:32:21;;;;;;;1.60;1.38;;;22.60;53.00;;;;;;5017068;28;20269;-72
2022/09/03 05:34:48;;;;;;;1.50;1.40;;;22.60;53.00;;;;;;5018656;28;20211;-72
2022/09/03 05:37:15;;;;;;;1.60;1.40;;;22.60;53.00;;;;;;5000062;28;20200;-72
2022/09/03 05:39:44;;;;;;;1.38;1.27;;;22.70;53.00;;;;;;5015516;28;20647;-72
2022/09/03 05:42:13;;;;;;;1.60;1.50;;;22.70;53.00;;;;;;5033286;28;20274;-72
2022/09/03 05:44:40;;;;;;;2.15;1.50;;;22.70;52.90;;;;;;5016712;28;20195;-72
2022/09/03 05:47:07;;;;;;;1.95;1.60;;;22.70;52.80;;;;;;5016421;28;20200;-72
2022/09/03 05:49:34;;;;;;;1.50;1.40;;;22.70;52.70;;;;;;5016844;28;20216;-72
2022/09/03 05:52:02;;;;;;;1.70;1.60;;;22.70;52.80;;;;;;5016005;28;20757;-72
2022/09/03 05:54:29;;;;;;;1.50;1.40;;;22.70;52.70;;;;;;5016365;28;20200;-72
2022/09/03 05:56:57;;;;;;;2.00;1.40;;;22.70;52.70;;;;;;5015752;28;20227;-72
2022/09/03 05:59:24;;;;;;;1.50;1.40;;;22.70;52.70;;;;;;5016950;28;20694;-72
2022/09/03 06:01:51;;;;;;;1.70;1.60;;;22.70;52.60;;;;;;5015779;28;20589;-72
2022/09/03 06:04:18;;;;;;;1.40;1.30;;;22.80;52.70;;;;;;5015739;28;20279;-72
2022/09/03 06:06:47;;;;;;;1.60;1.50;;;22.80;52.50;;;;;;5015866;28;20196;-72
2022/09/03 06:09:15;;;;;;;2.00;1.60;;;22.80;52.50;;;;;;5015634;28;20227;-72
2022/09/03 06:11:42;;;;;;;1.60;1.50;;;22.80;52.50;;;;;;5015642;28;20247;-72
2022/09/03 06:14:11;;;;;;;1.58;1.48;;;22.90;52.60;;;;;;5015793;28;20651;-73
2022/09/03 06:16:39;;;;;;;1.50;1.40;;;22.80;52.40;;;;;;5016114;28;20639;-72
2022/09/03 06:19:08;;;;;;;2.17;1.65;;;22.90;52.50;;;;;;5015874;28;20199;-72
2022/09/03 06:21:35;;;;;;;1.77;1.67;;;22.90;52.50;;;;;;4999911;28;20296;-72
2022/09/03 06:24:02;;;;;;;1.60;1.50;;;22.90;52.50;;;;;;5015582;28;20200;-73
2022/09/03 06:26:29;;;;;;;1.52;1.42;;;22.90;52.40;;;;;;5015589;28;20677;-72
2022/09/03 06:28:57;;;;;;;1.50;1.35;;;23.00;52.30;;;;;;5015578;28;20223;-72
2022/09/03 06:31:25;;;;;;;1.85;1.60;;;23.00;52.30;;;;;;5015441;28;20216;-72
2022/09/03 06:33:53;;;;;;;1.77;1.60;;;23.00;52.40;;;;;;5015839;28;20200;-73
2022/09/03 06:36:21;;;;;;;1.70;1.60;;;23.00;52.30;;;;;;5015516;28;20196;-73
2022/09/03 06:38:48;;;;;;;1.52;1.42;;;23.00;52.30;;;;;;5015854;28;20196;-73
2022/09/03 06:41:17;;;;;;;1.90;1.55;;;23.00;52.20;;;;;;5010933;28;20231;-72
2022/09/03 06:43:45;;;;;;;1.63;1.52;;;23.00;52.20;;;;;;5007386;28;20227;-72
2022/09/03 06:46:13;;;;;;;2.20;1.65;;;23.00;52.20;;;;;;5011814;28;20296;-73
2022/09/03 06:48:41;;;;;;;1.38;1.30;;;23.00;52.10;;;;;;5010776;28;20227;-72
2022/09/03 06:51:09;;;;;;;1.65;1.55;;;23.10;52.20;;;;;;5026992;28;20217;-72
2022/09/03 06:53:38;;;;;;;1.50;1.40;;;23.10;52.20;;;;;;4999310;28;20586;-72
2022/09/03 06:56:05;;;;;;;1.45;1.33;;;23.10;52.20;;;;;;5003144;28;20595;-72
2022/09/03 06:58:33;;;;;;;1.45;1.35;;;23.10;52.20;;;;;;5018912;28;20216;-72
2022/09/03 07:01:04;;;;;;;1.48;1.38;;;23.10;52.20;;;;;;5032369;28;20243;-72
2022/09/03 07:03:31;;;;;;;1.58;1.48;;;23.10;52.20;;;;;;4982781;28;20664;-72
2022/09/03 07:06:02;;;;;;;1.70;1.60;;;23.10;52.20;;;;;;5016384;28;20247;-72
2022/09/03 07:08:31;;;;;;;1.60;1.50;;;23.10;52.10;;;;;;4982632;28;20576;-72
2022/09/03 07:10:58;;;;;;;1.40;1.30;;;23.10;52.20;;;;;;4983195;28;20217;-72
2022/09/03 07:13:25;;;;;;;1.40;1.30;;;23.10;52.10;;;;;;4998872;28;20259;-73
2022/09/03 07:15:59;;;;;;;1.55;1.45;;;23.20;52.70;;;;;;4998934;28;20193;-73
2022/09/03 07:18:26;;;;;;;1.48;1.38;;;23.20;52.00;;;;;;4998723;28;20239;-72
2022/09/03 07:20:58;;;;;;;1.55;1.45;;;23.20;51.90;;;;;;4998940;28;20570;-73
2022/09/03 07:23:27;;;;;;;1.60;1.50;;;23.30;52.00;;;;;;4998819;28;20608;-73
2022/09/03 07:25:55;;;;;;;1.50;1.40;;;23.30;51.80;;;;;;4998930;28;20196;-72
2022/09/03 07:28:22;;;;;;;1.75;1.65;;;23.30;52.50;;;;;;4998468;28;20203;-73
2022/09/03 07:30:48;;;;;;;1.60;1.50;;;23.30;51.80;;;;;;4998518;28;20687;-72
2022/09/03 07:33:16;;;;;;;1.63;1.52;;;23.30;51.70;;;;;;4998488;28;20213;-72
2022/09/03 07:35:43;;;;;;;1.60;1.50;;;23.40;51.70;;;;;;4998316;28;20291;-72
2022/09/03 07:38:11;;;;;;;2.17;1.40;;;23.40;51.60;;;;;;4998455;28;20255;-72
2022/09/03 07:40:39;;;;;;;1.60;1.50;;;23.50;51.50;;;;;;4998939;28;20225;-73
2022/09/03 07:43:06;;;;;;;1.70;1.60;;;23.50;51.40;;;;;;4982241;28;20200;-73
2022/09/03 07:45:33;;;;;;;1.50;1.40;;;23.60;51.30;;;;;;4998497;28;20201;-73
2022/09/03 07:48:00;;;;;;;1.60;1.50;;;23.70;51.20;;;;;;4983907;28;20564;-73
2022/09/03 07:50:29;;;;;;;1.77;1.67;;;23.70;51.00;;;;;;4999415;28;20304;-72
2022/09/03 07:52:57;;;;;;;1.75;1.65;;;23.70;50.80;;;;;;5007076;28;20201;-72
2022/09/03 07:55:24;;;;;;;2.40;2.20;;;23.80;50.60;;;;;;5025551;28;20304;-72
2022/09/03 07:57:58;;;;;;;2.03;1.60;;;23.80;50.30;;;;;;5008909;28;20652;-73
2022/09/03 08:00:25;;;;;;;2.80;2.33;;;23.80;50.20;;;;;;5004550;28;20196;-73
2022/09/03 08:02:52;;;;;;;2.88;1.90;;;23.80;51.20;;;;;;5007531;28;20200;-73
2022/09/03 08:05:20;;;;;;;1.73;1.63;;;23.80;50.60;;;;;;5028855;28;20221;-73
2022/09/03 08:07:48;;;;;;;3.50;2.35;;;23.80;50.50;;;;;;5008664;28;20200;-73
2022/09/03 08:10:15;;;;;;;3.63;2.00;;;23.80;50.40;;;;;;4995713;28;20568;-72
2022/09/03 08:12:42;;;;;;;3.30;2.10;;;23.80;50.40;;;;;;5018449;28;20196;-73
2022/09/03 08:15:11;;;;;;;2.75;2.30;;;23.80;50.40;;;;;;5001493;28;20254;-73
2022/09/03 08:17:38;;;;;;;4.65;2.08;;;23.80;50.70;;;;;;5017547;28;20196;-73
2022/09/03 08:20:07;;;;;;;2.90;1.90;;;23.80;51.20;;;;;;5001111;28;20215;-73
2022/09/03 08:22:34;;;;;;;4.63;2.10;;;23.80;51.60;;;;;;5017200;28;20254;-72
2022/09/03 08:25:01;;;;;;;2.42;1.90;;;23.80;51.70;;;;;;5026708;28;20193;-73
2022/09/03 08:27:27;;;;;;;3.08;2.15;;;23.80;52.00;;;;;;4997871;28;20201;-73
2022/09/03 08:29:54;;;;;;;6.38;2.47;;;23.80;52.20;;;;;;4997753;28;20303;-72
2022/09/03 08:32:23;;;;;;;2.50;2.30;;;23.80;52.00;;;;;;5014022;28;20276;-73
2022/09/03 08:34:51;;;;;;;3.30;2.40;;;24.00;52.10;;;;;;4981593;28;20203;-72
2022/09/03 08:37:18;;;;;;;3.25;2.30;;;24.10;51.60;;;;;;4997815;28;20196;-73
2022/09/03 08:39:44;;;;;;;4.65;2.50;;;24.30;51.30;;;;;;5013985;28;20644;-72
2022/09/03 08:42:39;;;;;;;4.80;2.65;;;24.50;51.10;;;;;;5014200;28;20308;-73
2022/09/03 08:45:07;;;;;;;8.85;5.35;;;24.80;50.30;;;;;;5015480;28;20207;-73
2022/09/03 08:47:38;;;;;;;12.45;9.00;;;25.00;50.10;;;;;;5013453;28;20259;-73
2022/09/03 08:50:10;;;;;;;34.17;24.92;;;25.10;49.80;;;;;;5015051;28;20211;-72
2022/09/03 08:52:38;;;;;;;53.35;38.55;;;25.20;49.80;;;;;;5013437;28;20200;-73
2022/09/03 08:55:17;;;;;;;36.60;27.95;;;25.40;50.00;;;;;;4997085;28;20559;-73
2022/09/03 08:57:47;;;;;;;33.22;24.77;;;25.50;49.40;;;;;;5013448;28;20192;-73
2022/09/03 09:00:14;;;;;;;23.10;17.70;;;25.60;49.20;;;;;;4997246;28;20647;-73
2022/09/03 09:02:53;;;;;;;23.27;16.60;;;25.60;49.40;;;;;;4981007;28;20291;-73
2022/09/03 09:05:22;;;;;;;11.27;8.80;;;25.50;49.80;;;;;;5013523;28;20208;-73
2022/09/03 09:07:52;;;;;;;13.98;10.48;;;25.40;49.90;;;;;;4996962;28;20201;-73
2022/09/03 09:10:22;;;;;;;12.07;9.05;;;25.30;49.90;;;;;;4997077;28;20217;-73
2022/09/03 09:12:56;;;;;;;7.15;5.75;;;25.20;49.90;;;;;;5015237;28;20303;-72
2022/09/03 09:15:28;;;;;;;5.07;4.32;;;25.10;49.90;;;;;;5013646;28;20216;-72
2022/09/03 09:18:10;;;;;;;6.72;4.07;;;25.10;50.00;;;;;;4997157;28;20236;-72
2022/09/03 09:20:41;;;;;;;5.85;3.58;;;25.00;50.10;;;;;;5014541;28;20570;-72
2022/09/03 09:23:10;;;;;;;4.05;3.35;;;25.00;50.50;;;;;;4997061;28;20566;-72
2022/09/03 09:25:41;;;;;;;7.57;3.90;;;25.00;50.70;;;;;;4997139;28;20625;-73
2022/09/03 09:28:13;;;;;;;3.33;3.03;;;24.90;51.40;;;;;;4997256;28;20211;-73
2022/09/03 09:30:41;;;;;;;2.97;2.67;;;25.00;51.80;;;;;;5013542;28;20221;-73
2022/09/03 09:33:10;;;;;;;3.92;3.15;;;24.90;51.30;;;;;;4997018;28;20678;-73
2022/09/03 09:35:40;;;;;;;3.83;2.67;;;24.90;51.30;;;;;;5013633;28;20224;-73
2022/09/03 09:38:07;;;;;;;3.20;2.90;;;24.90;51.40;;;;;;5013965;28;20287;-73
2022/09/03 09:40:35;;;;;;;3.17;2.88;;;25.00;51.60;;;;;;5014172;28;20217;-72
2022/09/03 09:43:14;;;;;;;4.82;2.97;;;25.10;52.30;;;;;;5014557;28;20197;-73
2022/09/03 09:45:42;;;;;;;4.50;3.70;;;25.30;51.00;;;;;;4998616;28;20196;-73
2022/09/03 09:48:17;;;;;;;3.67;2.92;;;25.60;50.20;;;;;;5015864;28;20563;-73
2022/09/03 09:50:44;;;;;;;5.30;3.05;;;25.70;49.70;;;;;;5014965;28;20227;-73
2022/09/03 09:53:15;;;;;;;4.95;2.95;;;25.90;49.40;;;;;;4996617;28;20284;-73
2022/09/03 09:55:54;;;;;;;4.10;2.97;;;25.90;49.20;;;;;;5012872;28;20192;-72
2022/09/03 09:58:22;;;;;;;3.17;2.90;;;26.00;48.60;;;;;;4998506;28;20259;-73
2022/09/03 10:00:57;;;;;;;3.85;2.63;;;26.00;49.00;;;;;;5014398;28;20698;-74
2022/09/03 10:03:26;;;;;;;7.38;2.70;;;26.00;49.20;;;;;;5013664;28;20192;-73
2022/09/03 10:08:46;;;;;;;3.28;2.83;;;25.80;49.20;;;;;;5012247;28;20770;-73
2022/09/03 10:11:13;;;;;;;3.38;3.08;;;25.70;48.90;;;;;;4996541;28;20231;-73
2022/09/03 10:13:42;;;;;;;3.50;2.90;;;25.50;49.60;;;;;;4996434;28;20210;-73
2022/09/03 10:16:13;;;;;;;3.63;3.10;;;25.50;50.10;;;;;;4996558;28;20250;-73
2022/09/03 10:18:43;;;;;;;4.90;3.03;;;25.30;49.50;;;;;;5012522;28;20201;-74
2022/09/03 10:21:12;;;;;;;4.60;3.22;;;25.30;50.30;;;;;;5013981;28;20255;-73
2022/09/03 10:23:47;;;;;;;3.50;3.17;;;25.20;50.30;;;;;;5012989;28;20291;-73
2022/09/03 10:26:15;;;;;;;3.40;3.10;;;25.10;50.00;;;;;;4999479;28;20196;-73
2022/09/03 10:28:42;;;;;;;3.10;2.80;;;25.00;50.70;;;;;;5002908;28;20236;-74
2022/09/03 10:31:30;;;;;;;3.30;3.00;;;25.00;49.80;;;;;;5001968;28;20228;-74
2022/09/03 10:34:00;;;;;;;4.53;3.00;;;25.00;49.80;;;;;;5001356;28;20224;-72
2022/09/03 10:36:31;;;;;;;3.30;3.00;;;25.10;50.10;;;;;;5000634;28;20204;-73
2022/09/03 10:39:01;;;;;;;2.85;2.65;;;25.10;49.90;;;;;;5016198;28;20228;-73
2022/09/03 10:41:36;;;;;;;3.92;2.90;;;25.10;50.20;;;;;;5016116;28;20248;-73
2022/09/03 10:44:23;;;;;;;6.57;2.90;;;25.20;50.80;;;;;;5016516;28;20212;-73
2022/09/03 10:46:57;;;;;;;3.65;2.97;;;25.20;51.10;;;;;;4999692;28;20189;-73
2022/09/03 10:49:31;;;;;;;4.90;2.95;;;25.20;50.50;;;;;;4999608;28;20316;-73
2022/09/03 10:52:01;;;;;;;3.05;2.72;;;25.30;50.60;;;;;;5016483;28;20758;-73
2022/09/03 10:54:34;;;;;;;3.20;2.88;;;25.40;50.40;;;;;;5017384;28;20181;-73
2022/09/03 10:57:04;;;;;;;3.05;2.65;;;25.40;50.00;;;;;;4999847;28;20226;-72
2022/09/03 10:59:39;;;;;;;3.30;2.78;;;25.40;50.00;;;;;;4999479;28;20321;-72
2022/09/03 11:02:21;;;;;;;3.00;2.53;;;25.50;50.00;;;;;;5015633;28;20279;-74
2022/09/03 11:04:53;;;;;;;2.60;2.40;;;25.50;50.00;;;;;;4999253;28;20235;-73
2022/09/03 11:07:22;;;;;;;3.20;2.90;;;25.50;50.00;;;;;;5015615;28;20188;-73
2022/09/03 11:09:52;;;;;;;4.30;2.70;;;25.50;50.00;;;;;;5016147;28;20225;-73
2022/09/03 11:12:21;;;;;;;3.05;2.55;;;25.50;49.80;;;;;;5017985;28;20291;-73
2022/09/03 11:14:52;;;;;;;2.58;2.38;;;25.50;49.70;;;;;;4999234;28;20197;-73
2022/09/03 11:17:21;;;;;;;2.45;2.25;;;25.50;49.50;;;;;;5016731;28;20192;-74
2022/09/03 11:19:50;;;;;;;2.50;2.30;;;25.60;49.60;;;;;;4998787;28;20208;-73
2022/09/03 11:22:18;;;;;;;3.08;2.60;;;25.50;49.40;;;;;;5015128;28;20666;-73
2022/09/03 11:24:46;;;;;;;2.70;2.50;;;25.50;49.30;;;;;;4998795;28;20200;-74
2022/09/03 11:27:20;;;;;;;2.58;2.33;;;25.60;49.40;;;;;;4998876;28;20207;-74
2022/09/03 11:29:51;;;;;;;2.70;2.50;;;25.50;49.30;;;;;;5015834;28;20223;-74
2022/09/03 11:32:20;;;;;;;2.70;2.50;;;25.50;49.30;;;;;;5015017;28;20236;-73
2022/09/03 11:34:48;;;;;;;3.78;2.47;;;25.50;49.30;;;;;;5014844;28;20208;-74
2022/09/03 11:37:21;;;;;;;2.83;2.30;;;25.50;50.10;;;;;;4998135;28;20197;-74
2022/09/03 11:39:56;;;;;;;2.60;2.30;;;25.50;49.50;;;;;;5015134;28;20192;-73
2022/09/03 11:42:31;;;;;;;2.60;2.40;;;25.50;49.60;;;;;;4998316;28;20220;-72
2022/09/03 11:45:14;;;;;;;2.70;2.50;;;25.50;49.60;;;;;;5015917;28;20718;-73
2022/09/03 11:47:41;;;;;;;3.25;2.17;;;25.50;49.60;;;;;;5017711;28;20303;-72
2022/09/03 11:50:19;;;;;;;2.60;2.40;;;25.40;49.60;;;;;;5016754;28;20220;-73
2022/09/03 11:52:50;;;;;;;3.00;2.47;;;25.40;49.80;;;;;;5022767;28;20578;-73
2022/09/03 11:55:30;;;;;;;2.45;2.25;;;25.30;49.70;;;;;;5018440;28;20199;-73
2022/09/03 11:57:57;;;;;;;2.63;2.40;;;25.30;50.00;;;;;;5017977;28;20200;-73
2022/09/03 12:00:25;;;;;;;2.50;2.30;;;25.30;49.90;;;;;;5017900;28;20196;-74
2022/09/03 12:02:55;;;;;;;3.92;2.47;;;25.30;50.00;;;;;;5035614;28;20192;-73
2022/09/03 12:05:27;;;;;;;2.70;2.50;;;25.30;50.20;;;;;;5019468;28;20200;-74
2022/09/03 12:08:11;;;;;;;3.00;2.50;;;25.30;50.40;;;;;;5019996;28;20651;-74
2022/09/03 12:10:41;;;;;;;2.70;2.50;;;25.30;50.50;;;;;;5018032;28;20278;-73
2022/09/03 12:13:37;;;;;;;2.80;2.50;;;25.20;50.60;;;;;;5017605;28;20192;-73
2022/09/03 12:16:34;;;;;;;2.65;2.42;;;25.10;50.90;;;;;;5000846;28;20207;-73
2022/09/03 12:19:04;;;;;;;3.63;2.67;;;25.10;51.10;;;;;;5012469;28;20239;-73
2022/09/03 12:21:37;;;;;;;4.05;2.80;;;25.10;51.80;;;;;;5017499;28;20266;-74
2022/09/03 12:24:06;;;;;;;3.17;2.88;;;25.00;52.00;;;;;;5014186;28;20274;-74
2022/09/03 12:26:39;;;;;;;2.85;2.65;;;25.00;52.20;;;;;;4983695;28;20204;-74
2022/09/03 12:29:06;;;;;;;3.58;3.00;;;24.90;55.20;;;;;;4997727;28;20193;-72
2022/09/03 12:31:43;;;;;;;3.75;2.38;;;24.90;57.80;;;;;;5007329;28;20270;-73
2022/09/03 12:34:12;;;;;;;2.30;2.10;;;24.70;56.10;;;;;;5014110;28;20215;-73
2022/09/03 12:36:41;;;;;;;2.40;1.88;;;24.70;55.70;;;;;;5013954;28;20205;-73
2022/09/03 12:39:10;;;;;;;1.75;1.60;;;24.60;55.80;;;;;;5013831;28;20205;-73
2022/09/03 12:41:37;;;;;;;1.80;1.70;;;24.50;55.50;;;;;;4997186;28;20220;-73
2022/09/03 12:44:03;;;;;;;3.47;1.67;;;24.30;56.20;;;;;;4997187;28;20686;-73
2022/09/03 12:46:32;;;;;;;2.08;1.63;;;24.10;56.80;;;;;;5003161;28;20196;-73
2022/09/03 12:49:02;;;;;;;2.47;1.40;;;23.90;57.10;;;;;;5001792;28;20251;-73
2022/09/03 12:51:34;;;;;;;1.52;1.40;;;23.80;56.80;;;;;;5015590;28;20236;-73
2022/09/03 12:54:01;;;;;;;1.95;1.40;;;23.70;57.50;;;;;;4997165;28;20212;-73
2022/09/03 12:56:32;;;;;;;3.00;1.42;;;23.60;58.00;;;;;;5011677;28;20211;-73
2022/09/03 12:59:01;;;;;;;3.30;1.50;;;23.50;58.10;;;;;;5013594;28;20208;-73
2022/09/03 13:01:30;;;;;;;3.15;1.58;;;23.60;58.30;;;;;;5015562;28;20214;-73
2022/09/03 13:04:01;;;;;;;2.40;1.33;;;23.60;59.20;;;;;;5015284;28;20676;-72
2022/09/03 13:06:30;;;;;;;7.38;1.52;;;23.60;58.40;;;;;;4997990;28;20605;-73